createdAt,value
2018-07-27T00:01:23.896Z,3.83
2018-07-27T00:03:54.590Z,3.25
2018-07-27T00:06:27.344Z,3.60
2018-07-27T00:08:59.240Z,3.85
2018-07-27T00:11:30.968Z,3.70
2018-07-27T00:14:03.495Z,3.80
2018-07-27T00:16:35.137Z,3.47
2018-07-27T00:19:06.076Z,3.50
2018-07-27T00:21:38.050Z,3.95
2018-07-27T00:24:08.569Z,3.83
2018-07-27T00:26:39.290Z,4.15
2018-07-27T00:29:10.138Z,4.00
2018-07-27T00:31:41.530Z,4.22
2018-07-27T00:34:13.217Z,4.12
2018-07-27T00:36:44.124Z,4.20
2018-07-27T00:39:15.996Z,4.00
2018-07-27T00:41:53.885Z,4.40
2018-07-27T00:44:25.593Z,4.08
2018-07-27T00:46:59.246Z,3.75
2018-07-27T00:49:37.852Z,3.87
2018-07-27T00:52:11.460Z,4.30
2018-07-27T00:54:43.993Z,4.17
2018-07-27T00:57:14.268Z,4.03
2018-07-27T00:59:45.557Z,4.42
2018-07-27T01:02:19.371Z,4.37
2018-07-27T01:04:50.464Z,4.35
2018-07-27T01:07:24.011Z,4.37
2018-07-27T01:09:54.392Z,4.25
2018-07-27T01:12:24.880Z,4.45
2018-07-27T01:14:57.961Z,4.10
2018-07-27T01:17:29.260Z,4.10
2018-07-27T01:20:01.824Z,4.55
2018-07-27T01:22:32.514Z,4.12
2018-07-27T01:25:03.262Z,4.45
2018-07-27T01:27:35.205Z,4.72
2018-07-27T01:30:10.870Z,4.37
2018-07-27T01:32:40.940Z,4.33
2018-07-27T01:35:11.510Z,4.22
2018-07-27T01:37:42.536Z,4.53
2018-07-27T01:40:14.097Z,4.42
2018-07-27T01:42:46.149Z,4.47
2018-07-27T01:45:18.808Z,4.50
2018-07-27T01:47:52.931Z,4.47
2018-07-27T01:50:24.948Z,4.67
2018-07-27T01:53:00.193Z,4.67
2018-07-27T01:55:31.516Z,4.42
2018-07-27T01:58:03.437Z,4.40
2018-07-27T02:00:37.844Z,4.65
2018-07-27T02:03:08.196Z,4.17
2018-07-27T02:05:43.838Z,4.53
2018-07-27T02:08:16.656Z,4.67
2018-07-27T02:10:47.920Z,4.85
2018-07-27T02:13:19.760Z,4.60
2018-07-27T02:15:49.477Z,4.78
2018-07-27T02:18:18.979Z,4.70
2018-07-27T02:20:50.289Z,4.67
2018-07-27T02:23:22.624Z,4.97
2018-07-27T02:25:54.640Z,4.80
2018-07-27T02:28:23.727Z,5.22
2018-07-27T02:30:53.517Z,4.80
2018-07-27T02:33:24.721Z,4.83
2018-07-27T02:35:55.828Z,4.83
2018-07-27T02:38:26.492Z,4.90
2018-07-27T02:40:59.245Z,5.40
2018-07-27T02:43:34.862Z,5.10
2018-07-27T02:46:09.076Z,4.95
2018-07-27T02:48:40.124Z,4.97
2018-07-27T02:51:15.237Z,4.85
2018-07-27T02:53:47.615Z,5.17
2018-07-27T02:56:23.499Z,5.05
2018-07-27T03:01:37.980Z,4.90
2018-07-27T03:04:19.285Z,5.10
2018-07-27T03:07:00.936Z,4.87
2018-07-27T03:09:47.099Z,4.97
2018-07-27T03:12:23.108Z,5.10
2018-07-27T03:15:03.137Z,4.97
2018-07-27T03:17:36.255Z,5.00
2018-07-27T03:20:18.037Z,5.53
2018-07-27T03:22:51.862Z,5.28
2018-07-27T03:25:25.657Z,5.22
2018-07-27T03:27:56.180Z,5.35
2018-07-27T03:30:28.838Z,5.33
2018-07-27T03:32:59.872Z,5.05
2018-07-27T03:35:29.940Z,5.05
2018-07-27T03:38:01.752Z,5.40
2018-07-27T03:40:35.608Z,5.20
2018-07-27T03:43:07.054Z,4.85
2018-07-27T03:45:43.902Z,5.20
2018-07-27T03:48:14.748Z,5.22
2018-07-27T03:50:44.756Z,5.55
2018-07-27T03:53:14.340Z,5.40
2018-07-27T03:55:44.132Z,5.60
2018-07-27T03:58:13.904Z,4.87
2018-07-27T04:00:43.953Z,4.75
2018-07-27T04:03:13.079Z,5.30
2018-07-27T04:05:43.382Z,5.58
2018-07-27T04:08:12.688Z,5.37
2018-07-27T04:10:42.119Z,5.30
2018-07-27T04:13:11.908Z,5.67
2018-07-27T04:15:42.268Z,5.15
2018-07-27T04:18:12.170Z,5.70
2018-07-27T04:20:43.288Z,6.03
2018-07-27T04:23:12.797Z,5.83
2018-07-27T04:25:44.109Z,5.67
2018-07-27T04:28:13.895Z,5.85
2018-07-27T04:30:43.625Z,6.10
2018-07-27T04:33:14.218Z,5.92
2018-07-27T04:35:43.634Z,5.80
2018-07-27T04:38:14.403Z,5.53
2018-07-27T04:40:43.476Z,5.50
2018-07-27T04:43:13.296Z,5.47
2018-07-27T04:45:44.319Z,5.08
2018-07-27T04:48:14.631Z,5.30
2018-07-27T04:50:48.610Z,5.78
2018-07-27T04:53:17.736Z,5.17
2018-07-27T04:55:49.126Z,5.35
2018-07-27T04:58:18.445Z,5.58
2018-07-27T05:00:49.753Z,5.50
2018-07-27T05:03:21.460Z,5.22
2018-07-27T05:05:52.233Z,5.15
2018-07-27T05:08:24.000Z,5.60
2018-07-27T05:10:56.437Z,5.80
2018-07-27T05:13:26.380Z,5.15
2018-07-27T05:15:56.572Z,5.60
2018-07-27T05:18:30.377Z,5.35
2018-07-27T05:21:00.711Z,5.50
2018-07-27T05:23:37.538Z,5.37
2018-07-27T05:26:07.932Z,5.08
2018-07-27T05:28:37.987Z,4.72
2018-07-27T05:31:08.289Z,5.67
2018-07-27T05:33:41.748Z,5.37
2018-07-27T05:36:15.195Z,5.20
2018-07-27T05:38:45.418Z,5.55
2018-07-27T05:41:19.906Z,5.40
2018-07-27T05:43:50.881Z,5.33
2018-07-27T05:46:22.800Z,5.05
2018-07-27T05:48:54.356Z,5.65
2018-07-27T05:51:24.764Z,5.22
2018-07-27T05:53:54.001Z,5.62
2018-07-27T05:56:26.364Z,5.08
2018-07-27T05:58:57.629Z,5.30
2018-07-27T06:01:30.513Z,5.10
2018-07-27T06:04:01.769Z,5.42
2018-07-27T06:06:41.077Z,5.58
2018-07-27T06:09:12.603Z,5.55
2018-07-27T06:11:47.256Z,6.00
2018-07-27T06:14:22.207Z,5.53
2018-07-27T06:16:56.693Z,5.20
2018-07-27T06:19:29.404Z,5.42
2018-07-27T06:22:04.812Z,5.30
2018-07-27T06:24:55.826Z,5.10
2018-07-27T06:27:26.908Z,5.42
2018-07-27T06:29:59.617Z,5.45
2018-07-27T06:32:29.127Z,6.12
2018-07-27T06:35:03.095Z,5.30
2018-07-27T06:37:36.437Z,5.90
2018-07-27T06:40:08.157Z,6.03
2018-07-27T06:42:40.746Z,5.47
2018-07-27T06:45:12.320Z,5.25
2018-07-27T06:47:42.905Z,5.22
2018-07-27T06:50:17.120Z,4.85
2018-07-27T06:52:48.805Z,5.00
2018-07-27T06:55:20.512Z,4.80
2018-07-27T06:57:50.781Z,4.40
2018-07-27T07:00:21.843Z,4.50
2018-07-27T07:02:52.919Z,4.83
2018-07-27T07:05:25.424Z,4.60
2018-07-27T07:07:57.154Z,5.37
2018-07-27T07:10:31.355Z,4.85
2018-07-27T07:13:02.422Z,5.05
2018-07-27T07:15:33.112Z,4.60
2018-07-27T07:18:06.451Z,5.20
2018-07-27T07:20:36.391Z,4.50
2018-07-27T07:23:07.717Z,4.33
2018-07-27T07:25:39.068Z,4.70
2018-07-27T07:28:09.408Z,4.22
2018-07-27T07:30:45.345Z,4.60
2018-07-27T07:33:14.903Z,4.60
2018-07-27T07:35:46.820Z,4.60
2018-07-27T07:38:16.821Z,4.20
2018-07-27T07:40:50.352Z,4.37
2018-07-27T07:43:21.472Z,4.70
2018-07-27T07:45:51.711Z,4.60
2018-07-27T07:48:22.552Z,4.22
2018-07-27T07:50:52.539Z,4.35
2018-07-27T07:53:24.954Z,4.35
2018-07-27T07:55:56.156Z,4.67
2018-07-27T07:58:27.204Z,4.45
2018-07-27T08:00:57.600Z,4.62
2018-07-27T08:03:29.285Z,4.00
2018-07-27T08:05:59.869Z,4.40
2018-07-27T08:08:30.565Z,4.00
2018-07-27T08:11:02.638Z,4.20
2018-07-27T08:13:35.497Z,3.92
2018-07-27T08:16:07.165Z,4.45
2018-07-27T08:18:39.847Z,4.35
2018-07-27T08:21:10.885Z,4.08
2018-07-27T08:23:44.589Z,4.20
2018-07-27T08:27:00.030Z,4.47
2018-07-27T08:29:34.497Z,4.20
2018-07-27T08:32:04.937Z,3.72
2018-07-27T08:34:34.725Z,4.00
2018-07-27T08:37:06.474Z,3.85
2018-07-27T08:39:40.143Z,4.08
2018-07-27T08:42:09.990Z,3.62
2018-07-27T08:44:41.368Z,3.83
2018-07-27T08:47:11.890Z,3.77
2018-07-27T08:49:42.305Z,4.35
2018-07-27T08:52:13.958Z,3.70
2018-07-27T08:54:45.308Z,3.95
2018-07-27T08:57:20.645Z,4.03
2018-07-27T08:59:52.432Z,3.67
2018-07-27T09:02:22.642Z,3.72
2018-07-27T09:04:53.113Z,3.62
2018-07-27T09:07:23.398Z,3.50
2018-07-27T09:09:54.534Z,3.80
2018-07-27T09:12:27.949Z,3.87
2018-07-27T09:14:58.780Z,3.62
2018-07-27T09:17:31.237Z,3.95
2018-07-27T09:20:01.562Z,4.08
2018-07-27T09:22:33.119Z,3.75
2018-07-27T09:25:04.940Z,3.87
2018-07-27T09:27:34.678Z,4.03
2018-07-27T09:30:04.273Z,3.45
2018-07-27T09:32:35.026Z,3.87
2018-07-27T09:35:12.957Z,4.20
2018-07-27T09:37:43.704Z,4.03
2018-07-27T09:40:20.194Z,3.95
2018-07-27T09:42:52.368Z,4.22
2018-07-27T09:45:21.594Z,3.80
2018-07-27T09:47:51.721Z,3.98
2018-07-27T09:50:23.753Z,4.20
2018-07-27T09:53:00.357Z,3.87
2018-07-27T09:55:31.913Z,3.65
2018-07-27T09:58:01.068Z,4.17
2018-07-27T10:00:46.378Z,3.87
2018-07-27T10:03:20.237Z,4.10
2018-07-27T10:05:50.103Z,4.45
2018-07-27T10:08:19.610Z,3.87
2018-07-27T10:10:49.604Z,3.95
2018-07-27T10:13:20.260Z,3.98
2018-07-27T10:15:52.632Z,4.05
2018-07-27T10:18:23.670Z,3.80
2018-07-27T10:21:01.238Z,4.25
2018-07-27T10:23:34.260Z,4.53
2018-07-27T10:26:07.137Z,5.00
2018-07-27T10:28:40.023Z,4.40
2018-07-27T10:31:10.780Z,4.67
2018-07-27T10:33:44.441Z,3.77
2018-07-27T10:36:19.835Z,4.40
2018-07-27T10:38:50.924Z,4.22
2018-07-27T10:41:23.570Z,3.98
2018-07-27T10:43:56.336Z,4.45
2018-07-27T10:46:25.481Z,4.10
2018-07-27T10:48:59.280Z,4.25
2018-07-27T10:51:30.204Z,4.55
2018-07-27T10:54:06.075Z,4.47
2018-07-27T10:56:36.030Z,4.30
2018-07-27T11:01:44.399Z,4.80
2018-07-27T11:04:15.704Z,4.45
2018-07-27T11:06:45.892Z,4.30
2018-07-27T11:09:16.937Z,4.50
2018-07-27T11:11:48.692Z,4.95
2018-07-27T11:14:18.736Z,4.05
2018-07-27T11:16:52.031Z,4.17
2018-07-27T11:19:21.252Z,4.10
2018-07-27T11:21:51.716Z,4.25
2018-07-27T11:24:24.672Z,4.33
2018-07-27T11:26:54.744Z,4.67
2018-07-27T11:29:28.979Z,4.45
2018-07-27T11:31:58.781Z,4.35
2018-07-27T11:34:28.776Z,4.20
2018-07-27T11:36:58.223Z,4.22
2018-07-27T11:39:27.581Z,4.67
2018-07-27T11:41:58.152Z,4.50
2018-07-27T11:44:27.628Z,4.17
2018-07-27T11:46:59.976Z,3.87
2018-07-27T11:49:31.035Z,3.90
2018-07-27T11:52:07.797Z,3.98
2018-07-27T11:54:42.005Z,4.37
2018-07-27T11:57:13.361Z,4.30
2018-07-27T11:59:47.652Z,4.25
2018-07-27T12:05:12.001Z,3.95
2018-07-27T12:07:49.096Z,4.12
2018-07-27T12:10:35.048Z,4.30
2018-07-27T12:13:14.322Z,4.30
2018-07-27T12:15:53.620Z,4.83
2018-07-27T12:18:24.584Z,4.75
2018-07-27T12:21:00.925Z,4.30
2018-07-27T12:26:24.940Z,4.33
2018-07-27T12:28:56.808Z,4.20
2018-07-27T12:31:32.404Z,4.28
2018-07-27T12:34:10.705Z,4.33
2018-07-27T12:36:43.936Z,4.33
2018-07-27T12:39:19.860Z,4.15
2018-07-27T12:41:51.469Z,4.15
2018-07-27T12:44:24.100Z,4.10
2018-07-27T12:46:59.597Z,4.28
2018-07-27T12:49:31.636Z,4.03
2018-07-27T12:52:02.637Z,4.10
2018-07-27T12:54:36.828Z,3.77
2018-07-27T12:57:05.908Z,4.15
2018-07-27T12:59:35.251Z,4.00
2018-07-27T13:02:04.424Z,4.20
2018-07-27T13:04:33.787Z,4.42
2018-07-27T13:07:02.874Z,4.35
2018-07-27T13:09:32.289Z,4.10
2018-07-27T13:12:01.397Z,3.85
2018-07-27T13:17:00.907Z,4.12
2018-07-27T13:19:30.031Z,3.83
2018-07-27T13:21:59.373Z,4.10
2018-07-27T13:26:59.207Z,4.10
2018-07-27T13:29:29.153Z,3.92
2018-07-27T13:32:00.617Z,3.80
2018-07-27T13:34:38.901Z,4.00
2018-07-27T13:37:09.016Z,4.37
2018-07-27T13:39:39.287Z,4.42
2018-07-27T13:42:11.028Z,4.05
2018-07-27T13:44:40.696Z,3.90
2018-07-27T13:47:11.052Z,3.95
2018-07-27T13:49:41.356Z,3.90
2018-07-27T13:52:12.218Z,4.37
2018-07-27T13:54:43.625Z,4.47
2018-07-27T13:57:14.612Z,3.85
2018-07-27T13:59:44.385Z,4.30
2018-07-27T14:02:19.927Z,4.47
2018-07-27T14:04:55.264Z,4.33
2018-07-27T14:07:29.885Z,4.25
2018-07-27T14:10:06.696Z,4.22
2018-07-27T14:12:40.030Z,4.40
2018-07-27T14:15:10.716Z,4.85
2018-07-27T14:17:40.965Z,4.40
2018-07-27T14:20:16.604Z,4.12
2018-07-27T14:22:46.392Z,4.30
2018-07-27T14:25:18.996Z,4.00
2018-07-27T14:27:50.507Z,4.55
2018-07-27T14:30:23.823Z,4.10
2018-07-27T14:32:57.865Z,4.10
2018-07-27T14:35:28.784Z,4.05
2018-07-27T14:37:59.101Z,4.25
2018-07-27T14:40:29.300Z,4.25
2018-07-27T14:43:00.093Z,4.25
2018-07-27T14:45:29.174Z,3.92
2018-07-27T14:48:04.268Z,4.10
2018-07-27T14:50:37.689Z,4.22
2018-07-27T14:53:12.012Z,4.17
2018-07-27T14:55:41.789Z,4.33
2018-07-27T14:58:12.453Z,4.08
2018-07-27T15:00:44.716Z,3.60
2018-07-27T15:03:17.818Z,3.87
2018-07-27T15:05:47.034Z,4.85
2018-07-27T15:08:18.841Z,4.70
2018-07-27T15:10:49.111Z,4.17
2018-07-27T15:13:20.392Z,4.50
2018-07-27T15:15:52.784Z,4.50
2018-07-27T15:18:32.817Z,4.47
2018-07-27T15:21:05.845Z,4.12
2018-07-27T15:23:37.468Z,4.50
2018-07-27T15:26:07.946Z,4.47
2018-07-27T15:28:42.712Z,4.80
2018-07-27T15:31:12.564Z,4.30
2018-07-27T15:33:44.329Z,4.22
2018-07-27T15:36:15.655Z,4.00
2018-07-27T15:38:48.704Z,4.28
2018-07-27T15:41:19.130Z,4.40
2018-07-27T15:43:52.777Z,4.90
2018-07-27T15:46:24.581Z,4.40
2018-07-27T15:49:08.976Z,4.33
2018-07-27T15:51:43.212Z,4.40
2018-07-27T15:54:14.692Z,4.42
2018-07-27T15:56:45.725Z,4.30
2018-07-27T15:59:15.927Z,5.00
2018-07-27T16:01:50.290Z,4.55
2018-07-27T16:04:19.547Z,4.33
2018-07-27T16:06:51.437Z,4.33
2018-07-27T16:09:21.916Z,4.80
2018-07-27T16:11:52.785Z,4.55
2018-07-27T16:14:24.360Z,4.15
2018-07-27T16:16:57.969Z,4.30
2018-07-27T16:19:33.336Z,4.40
2018-07-27T16:22:07.161Z,4.03
2018-07-27T16:24:38.830Z,4.17
2018-07-27T16:27:15.254Z,4.20
2018-07-27T16:29:49.412Z,4.00
2018-07-27T16:32:24.574Z,4.22
2018-07-27T16:34:55.493Z,4.33
2018-07-27T16:37:27.173Z,4.03
2018-07-27T16:40:01.669Z,3.67
2018-07-27T16:42:34.400Z,3.50
2018-07-27T16:45:15.121Z,3.98
2018-07-27T16:47:50.674Z,4.00
2018-07-27T16:50:22.557Z,3.83
2018-07-27T16:52:53.071Z,4.00
2018-07-27T16:55:24.410Z,3.95
2018-07-27T16:57:58.260Z,3.90
2018-07-27T17:00:28.341Z,4.33
2018-07-27T17:03:01.034Z,4.35
2018-07-27T17:05:31.864Z,3.87
2018-07-27T17:08:02.896Z,3.70
2018-07-27T17:10:32.028Z,3.80
2018-07-27T17:13:02.380Z,3.75
2018-07-27T17:15:32.041Z,3.87
2018-07-27T17:18:01.455Z,3.60
2018-07-27T17:20:31.066Z,3.80
2018-07-27T17:23:00.216Z,4.12
2018-07-27T17:25:34.788Z,3.80
2018-07-27T17:28:06.154Z,3.92
2018-07-27T17:30:37.859Z,3.72
2018-07-27T17:33:11.427Z,4.00
2018-07-27T17:35:42.323Z,3.52
2018-07-27T17:38:17.341Z,3.70
2018-07-27T17:40:47.620Z,3.83
2018-07-27T17:43:17.754Z,4.03
2018-07-27T17:45:50.291Z,4.30
2018-07-27T17:48:19.801Z,4.15
2018-07-27T17:50:51.126Z,3.75
2018-07-27T17:53:24.421Z,3.80
2018-07-27T17:55:57.502Z,4.30
2018-07-27T17:58:28.232Z,4.20
2018-07-27T18:01:00.101Z,3.92
2018-07-27T18:03:30.513Z,4.30
2018-07-27T18:06:04.121Z,4.25
2018-07-27T18:08:38.158Z,4.40
2018-07-27T18:11:09.928Z,3.90
2018-07-27T18:13:42.088Z,4.22
2018-07-27T18:16:14.996Z,3.83
2018-07-27T18:18:44.852Z,4.17
2018-07-27T18:21:20.532Z,4.17
2018-07-27T18:23:50.233Z,3.87
2018-07-27T18:26:22.385Z,4.10
2018-07-27T18:28:53.528Z,4.37
2018-07-27T18:31:26.210Z,3.83
2018-07-27T18:33:58.062Z,4.08
2018-07-27T18:36:29.112Z,4.12
2018-07-27T18:39:00.921Z,3.92
2018-07-27T18:41:33.880Z,4.40
2018-07-27T18:44:06.229Z,4.25
2018-07-27T18:46:42.060Z,4.17
2018-07-27T18:49:14.264Z,4.20
2018-07-27T18:51:45.641Z,4.17
2018-07-27T18:54:19.969Z,4.40
2018-07-27T18:56:55.783Z,4.08
2018-07-27T18:59:25.173Z,4.33
2018-07-27T19:02:00.211Z,4.15
2018-07-27T19:04:29.308Z,4.17
2018-07-27T19:06:58.922Z,4.50
2018-07-27T19:09:28.757Z,4.62
2018-07-27T19:11:59.265Z,4.12
2018-07-27T19:14:29.585Z,4.08
2018-07-27T19:17:02.892Z,3.83
2018-07-27T19:19:33.380Z,4.50
2018-07-27T19:22:05.433Z,4.30
2018-07-27T19:24:35.075Z,4.42
2018-07-27T19:27:06.004Z,4.20
2018-07-27T19:29:41.052Z,4.55
2018-07-27T19:32:21.062Z,4.45
2018-07-27T19:34:53.652Z,4.33
2018-07-27T19:37:25.404Z,4.40
2018-07-27T19:40:01.097Z,4.05
2018-07-27T19:42:33.749Z,4.33
2018-07-27T19:45:07.990Z,4.37
2018-07-27T19:47:39.464Z,5.03
2018-07-27T19:50:10.537Z,4.80
2018-07-27T19:52:44.312Z,5.08
2018-07-27T19:55:14.264Z,5.17
2018-07-27T19:57:45.857Z,4.33
2018-07-27T20:00:15.340Z,4.17
2018-07-27T20:02:45.757Z,4.60
2018-07-27T20:05:15.092Z,4.33
2018-07-27T20:07:46.157Z,4.67
2018-07-27T20:10:16.636Z,4.78
2018-07-27T20:12:47.033Z,4.95
2018-07-27T20:15:16.721Z,4.60
2018-07-27T20:17:46.856Z,4.40
2018-07-27T20:20:18.704Z,4.80
2018-07-27T20:22:47.628Z,4.60
2018-07-27T20:25:18.096Z,4.53
2018-07-27T20:27:47.456Z,4.33
2018-07-27T20:30:20.255Z,4.45
2018-07-27T20:32:50.324Z,4.30
2018-07-27T20:35:23.744Z,4.58
2018-07-27T20:37:56.144Z,4.42
2018-07-27T20:40:27.131Z,4.33
2018-07-27T20:42:57.088Z,4.92
2018-07-27T20:45:28.946Z,4.42
2018-07-27T20:47:58.348Z,4.60
2018-07-27T20:50:29.000Z,4.70
2018-07-27T20:53:00.589Z,4.70
2018-07-27T20:55:30.129Z,4.58
2018-07-27T20:58:03.218Z,5.42
2018-07-27T21:00:36.380Z,4.45
2018-07-27T21:03:08.235Z,4.90
2018-07-27T21:05:43.532Z,4.75
2018-07-27T21:08:23.375Z,4.70
2018-07-27T21:16:35.025Z,5.05
2018-07-27T21:19:15.375Z,5.03
2018-07-27T21:21:57.564Z,4.65
2018-07-27T21:24:34.236Z,4.70
2018-07-27T21:27:09.645Z,4.80
2018-07-27T21:29:48.707Z,4.80
2018-07-27T21:32:26.435Z,4.95
2018-07-27T21:35:08.209Z,4.50
2018-07-27T21:37:47.428Z,4.67
2018-07-27T21:40:21.848Z,4.60
2018-07-27T21:42:57.710Z,4.37
2018-07-27T21:45:29.157Z,4.72
2018-07-27T21:48:01.872Z,4.67
2018-07-27T21:50:35.736Z,5.00
2018-07-27T21:53:08.843Z,4.62
2018-07-27T21:55:38.405Z,4.92
2018-07-27T21:58:10.103Z,4.87
2018-07-27T22:00:39.937Z,4.90
2018-07-27T22:03:09.017Z,4.95
2018-07-27T22:05:39.292Z,4.70
2018-07-27T22:08:14.288Z,4.83
2018-07-27T22:10:45.576Z,4.70
2018-07-27T22:13:14.753Z,5.10
2018-07-27T22:15:43.876Z,4.90
2018-07-27T22:18:13.465Z,4.70
2018-07-27T22:20:42.584Z,5.30
2018-07-27T22:23:12.212Z,4.62
2018-07-27T22:25:41.331Z,5.08
2018-07-27T22:28:10.513Z,5.17
2018-07-27T22:30:41.011Z,4.62
2018-07-27T22:33:10.131Z,5.03
2018-07-27T22:35:39.292Z,5.28
2018-07-27T22:38:09.875Z,4.80
2018-07-27T22:40:39.110Z,4.78
2018-07-27T22:43:09.385Z,5.22
2018-07-27T22:45:39.176Z,4.97
2018-07-27T22:48:08.988Z,5.00
2018-07-27T22:50:38.732Z,4.87
2018-07-27T22:53:07.896Z,4.95
2018-07-27T22:55:38.140Z,4.92
2018-07-27T22:58:08.582Z,5.05
2018-07-27T23:00:39.599Z,4.85
2018-07-27T23:03:08.917Z,4.90
2018-07-27T23:05:45.057Z,5.22
2018-07-27T23:08:16.018Z,4.75
2018-07-27T23:10:45.238Z,5.05
2018-07-27T23:13:18.820Z,5.33
2018-07-27T23:15:49.149Z,5.25
2018-07-27T23:18:19.181Z,5.12
2018-07-27T23:20:49.484Z,5.12
2018-07-27T23:23:19.924Z,5.10
2018-07-27T23:25:49.408Z,5.10
2018-07-27T23:28:20.456Z,5.12
2018-07-27T23:30:51.064Z,5.10
2018-07-27T23:33:21.054Z,5.75
2018-07-27T23:35:51.549Z,5.58
2018-07-27T23:38:22.786Z,5.22
2018-07-27T23:40:53.220Z,5.20
2018-07-27T23:43:23.531Z,5.33
2018-07-27T23:45:56.609Z,5.33
2018-07-27T23:48:26.804Z,5.22
2018-07-27T23:51:00.083Z,4.97
2018-07-27T23:53:29.996Z,5.35
2018-07-27T23:56:00.356Z,5.30
2018-07-27T23:58:31.921Z,5.62
